Time;durP1;ratioP1;P1;durP2;ratioP2;P2;SDS_P1;SDS_P2;PMS_P1;PMS_P2;Temp;Humidity;BMP_temperature;BMP_pressure;BME280_temperature;BME280_humidity;BME280_pressure;Samples;Min_cycle;Max_cycle;Signal;HPM_P1;HPM_P2
2021/06/08 00:01:13;;;;;;;9.55;2.30;;;;;;;16.90;100.00;98745.64;1826602;78;21413;-66
2021/06/08 00:03:44;;;;;;;7.55;2.55;;;;;;;16.86;100.00;98743.55;1827006;78;20990;-65
2021/06/08 00:06:17;;;;;;;3.70;2.45;;;;;;;16.83;100.00;98748.12;1817060;78;21413;-66
2021/06/08 00:08:46;;;;;;;8.93;2.85;;;;;;;16.77;100.00;98739.91;1824514;78;20939;-66
2021/06/08 00:11:20;;;;;;;5.87;2.47;;;;;;;16.69;100.00;98741.99;1826630;78;20940;-65
2021/06/08 00:13:51;;;;;;;5.85;2.30;;;;;;;16.63;100.00;98750.17;1826860;78;21394;-66
2021/06/08 00:16:22;;;;;;;4.33;2.50;;;;;;;16.54;100.00;98742.49;1826782;78;21429;-66
2021/06/08 00:18:54;;;;;;;11.18;2.30;;;;;;;16.46;100.00;98732.59;1826861;78;20919;-66
2021/06/08 00:21:27;;;;;;;3.70;2.08;;;;;;;16.31;100.00;98740.66;1826769;78;21442;-68
2021/06/08 00:23:59;;;;;;;4.08;2.33;;;;;;;16.31;100.00;98740.66;1824361;78;20971;-66
2021/06/08 00:26:36;;;;;;;4.83;2.20;;;;;;;16.25;100.00;98740.89;1825525;78;21122;-65
2021/06/08 00:29:11;;;;;;;3.27;1.80;;;;;;;16.12;100.00;98737.79;1821278;78;21480;-66
2021/06/08 00:31:42;;;;;;;7.83;2.60;;;;;;;16.04;100.00;98732.70;1823420;78;21473;-66
2021/06/08 00:34:19;;;;;;;5.37;2.52;;;;;;;16.04;100.00;98732.70;1823652;78;21540;-66
2021/06/08 00:36:53;;;;;;;4.87;2.25;;;;;;;15.98;100.00;98741.36;1823643;78;21027;-66
2021/06/08 00:39:35;;;;;;;4.35;2.17;;;;;;;15.98;100.00;98741.36;1822124;78;20907;-66
2021/06/08 00:42:11;;;;;;;5.22;2.10;;;;;;;15.92;100.00;98739.78;1823480;78;20852;-66
2021/06/08 00:44:47;;;;;;;5.22;2.20;;;;;;;15.92;100.00;98739.78;1822441;78;21417;-64
2021/06/08 00:47:22;;;;;;;4.90;2.35;;;;;;;15.88;100.00;98740.80;1822275;78;21453;-65
2021/06/08 00:50:05;;;;;;;;;;;;;;;;;;;;;
2021/06/08 00:52:26;;;;;;;3.85;2.22;;;;;;;15.79;100.00;98738.92;1815703;78;21169;-66
2021/06/08 00:55:00;;;;;;;4.50;2.20;;;;;;;15.76;100.00;98742.55;1822412;78;21014;-67
2021/06/08 00:57:31;;;;;;;4.58;2.02;;;;;;;15.74;100.00;98739.94;1822990;78;21445;-66
2021/06/08 01:00:13;;;;;;;4.62;1.77;;;;;;;15.71;100.00;98737.39;1823640;78;20915;-66
2021/06/08 01:02:49;;;;;;;5.42;2.20;;;;;;;15.71;100.00;98737.39;1822872;78;20923;-66
2021/06/08 01:05:31;;;;;;;3.58;2.30;;;;;;;15.67;100.00;98734.42;1813452;78;21689;-67
2021/06/08 01:07:55;;;;;;;6.58;2.40;;;;;;;15.62;100.00;98736.36;1817401;78;20848;-67
2021/06/08 01:10:28;;;;;;;4.97;2.00;;;;;;;15.57;100.00;98729.39;1824010;78;20908;-66
2021/06/08 01:13:04;;;;;;;3.22;2.00;;;;;;;15.52;100.00;98732.20;1796056;78;21381;-65
2021/06/08 01:15:45;;;;;;;6.00;2.35;;;;;;;15.50;100.00;98734.05;1817174;78;20952;-65
2021/06/08 01:18:24;;;;;;;6.08;2.30;;;;;;;15.45;100.00;98735.98;1822194;78;21542;-65
2021/06/08 01:21:12;;;;;;;2.83;1.87;;;;;;;15.41;100.00;98730.36;1811569;78;21346;-66
2021/06/08 01:23:48;;;;;;;5.10;1.95;;;;;;;15.37;100.00;98732.24;1813265;78;20883;-66
2021/06/08 01:26:33;;;;;;;5.80;2.10;;;;;;;15.34;100.00;98732.80;1821582;78;21527;-67
2021/06/08 01:29:05;;;;;;;7.03;1.72;;;;;;;15.32;100.00;98727.99;1829481;78;20889;-66
2021/06/08 01:31:41;;;;;;;2.58;1.95;;;;;;;15.30;100.00;98727.17;1817886;78;21417;-66
2021/06/08 01:34:16;;;;;;;5.60;2.15;;;;;;;15.27;100.00;98725.48;1829480;78;21428;-66
2021/06/08 01:36:48;;;;;;;3.50;2.35;;;;;;;15.22;100.00;98723.44;1829827;78;20895;-66
2021/06/08 01:39:21;;;;;;;5.03;2.10;;;;;;;15.19;100.00;98725.31;1829602;78;21496;-66
2021/06/08 01:41:55;;;;;;;5.30;2.30;;;;;;;15.15;100.00;98723.67;1828122;78;20906;-66
2021/06/08 01:44:24;;;;;;;3.72;2.02;;;;;;;15.12;100.00;98729.46;1829744;78;21094;-66
2021/06/08 01:46:53;;;;;;;4.85;1.90;;;;;;;15.12;100.00;98735.23;1829486;78;21006;-66
2021/06/08 01:49:23;;;;;;;5.60;2.12;;;;;;;15.10;100.00;98733.95;1829577;78;20998;-67
2021/06/08 01:52:06;;;;;;;4.97;2.40;;;;;;;15.09;100.00;98732.67;1829887;78;21092;-66
2021/06/08 01:55:07;;;;;;;3.45;2.30;;;;;;;15.06;100.00;98734.97;1829637;78;20859;-67
2021/06/08 01:57:59;;;;;;;3.85;2.08;;;;;;;15.04;100.00;98738.59;1829528;78;22017;-64
2021/06/08 02:01:00;;;;;;;7.13;2.10;;;;;;;15.03;100.00;98736.84;1823035;78;20851;-65
2021/06/08 02:04:18;;;;;;;2.40;1.85;;;;;;;15.02;100.00;98737.30;1829963;78;21393;-65
2021/06/08 02:07:31;;;;;;;2.50;2.17;;;;;;;14.99;100.00;98738.73;1829007;78;21448;-63
2021/06/08 02:10:26;;;;;;;4.87;2.77;;;;;;;14.96;100.00;98733.51;1829376;78;21547;-65
2021/06/08 02:16:06;;;;;;;3.60;2.20;;;;;;;14.87;100.00;98731.13;1783369;78;21607;-64
2021/06/08 02:18:43;;;;;;;5.75;2.17;;;;;;;14.85;100.00;98725.45;1827625;78;21350;-65
2021/06/08 02:21:23;;;;;;;4.05;2.08;;;;;;;14.85;100.00;98736.08;1826923;78;20867;-65
2021/06/08 02:23:58;;;;;;;4.80;2.47;;;;;;;14.83;100.00;98733.92;1829481;78;21426;-65
2021/06/08 02:26:31;;;;;;;3.05;2.00;;;;;;;14.80;100.00;98737.55;1829636;78;21294;-64
2021/06/08 02:29:12;;;;;;;4.20;2.37;;;;;;;14.82;100.00;98747.66;1827885;78;20859;-65
2021/06/08 02:31:47;;;;;;;5.78;2.50;;;;;;;14.85;100.00;98746.70;1823404;78;20911;-65
2021/06/08 02:34:24;;;;;;;4.15;2.37;;;;;;;14.85;100.00;98752.88;1821470;78;21496;-65
2021/06/08 02:37:00;;;;;;;3.58;2.72;;;;;;;14.88;100.00;98754.58;1829513;78;21530;-65
2021/06/08 02:39:37;;;;;;;4.22;2.37;;;;;;;14.91;100.00;98755.81;1802154;78;21342;-64
2021/06/08 02:42:13;;;;;;;6.05;2.65;;;;;;;14.92;100.00;98745.14;1829365;78;20951;-66
2021/06/08 02:44:46;;;;;;;3.90;2.60;;;;;;;14.96;100.00;98745.46;1829496;78;20871;-65
2021/06/08 02:47:23;;;;;;;5.25;2.65;;;;;;;15.00;100.00;98748.89;1829539;78;21453;-65
2021/06/08 02:49:57;;;;;;;4.92;2.62;;;;;;;15.01;100.00;98748.84;1822726;78;21353;-65
2021/06/08 02:52:36;;;;;;;2.30;2.10;;;;;;;15.04;100.00;98755.85;1825957;78;21598;-65
2021/06/08 02:55:10;;;;;;;4.60;2.60;;;;;;;15.06;100.00;98761.98;1818033;78;21385;-65
2021/06/08 02:57:40;;;;;;;5.75;2.90;;;;;;;15.12;100.00;98764.45;1829302;78;21430;-66
2021/06/08 03:00:20;;;;;;;4.70;2.33;;;;;;;15.16;100.00;98764.80;1826673;78;21390;-65
2021/06/08 03:03:05;;;;;;;5.28;2.60;;;;;;;15.19;100.00;98763.84;1829582;78;20908;-66
2021/06/08 03:05:42;;;;;;;;;;;;;;;15.23;100.00;98768.14;1832198;78;21466;-66
2021/06/08 03:08:25;;;;;;;2.55;2.30;;;;;;;15.26;100.00;98763.61;1828813;78;20093;-67
2021/06/08 03:10:58;;;;;;;3.27;2.52;;;;;;;15.31;100.00;98768.77;1829570;78;20922;-66
2021/06/08 03:13:29;;;;;;;;;;;;;;;15.36;100.00;98771.70;1831952;78;21527;-66
2021/06/08 03:15:58;;;;;;;4.03;2.45;;;;;;;15.40;100.00;98772.47;1829231;78;20435;-68
2021/06/08 03:18:35;;;;;;;2.85;2.47;;;;;;;15.43;100.00;98775.91;1774420;78;21138;-67
2021/06/08 03:21:30;;;;;;;8.78;3.00;;;;;;;15.48;100.00;98770.44;1829238;78;20998;-65
2021/06/08 03:23:51;;;;;;;8.35;2.80;;;;;;;15.57;100.00;98772.80;1810358;78;20962;-65
2021/06/08 03:26:31;;;;;;;4.58;2.70;;;;;;;15.64;100.00;98769.09;1829039;78;20940;-63
2021/06/08 03:29:06;;;;;;;3.95;2.58;;;;;;;15.73;100.00;98779.88;1821135;78;21536;-64
2021/06/08 03:31:40;;;;;;;6.87;2.42;;;;;;;15.81;100.00;98780.95;1823142;78;21998;-65
2021/06/08 03:34:15;;;;;;;4.33;2.25;;;;;;;15.89;100.00;98786.89;1823117;78;20860;-64
2021/06/08 03:37:03;;;;;;;5.00;2.40;;;;;;;15.98;100.00;98788.78;1812166;78;21493;-65
2021/06/08 03:39:29;;;;;;;5.22;3.10;;;;;;;16.10;100.00;98799.96;1805731;78;21477;-65
2021/06/08 03:41:59;;;;;;;5.75;2.90;;;;;;;16.21;100.00;98792.48;1822957;78;20974;-63
2021/06/08 03:44:30;;;;;;;4.95;3.05;;;;;;;16.28;100.00;98800.66;1822873;78;21096;-65
2021/06/08 03:47:00;;;;;;;6.22;2.70;;;;;;;16.36;100.00;98798.59;1823375;78;20956;-65
2021/06/08 03:49:29;;;;;;;5.65;2.70;;;;;;;16.54;100.00;98797.95;1823504;78;20943;-65
2021/06/08 03:52:08;;;;;;;3.98;3.00;;;;;;;16.54;100.00;98797.95;1823468;78;21524;-68
2021/06/08 03:54:41;;;;;;;6.33;2.90;;;;;;;16.63;100.00;98802.10;1821768;78;21477;-67
2021/06/08 03:57:11;;;;;;;5.22;2.95;;;;;;;16.69;100.00;98800.58;1817888;78;21325;-64
2021/06/08 03:59:47;;;;;;;5.45;2.50;;;;;;;16.87;100.00;98801.23;1823061;78;20899;-65
2021/06/08 04:02:18;;;;;;;3.65;2.83;;;;;;;16.87;100.00;98801.23;1823393;78;21410;-66
2021/06/08 04:04:57;;;;;;;3.45;2.52;;;;;;;16.94;100.00;98802.74;1822127;78;20963;-64
2021/06/08 04:07:27;;;;;;;4.08;2.80;;;;;;;17.02;100.00;98801.59;1822517;78;20967;-64
2021/06/08 04:09:59;;;;;;;6.35;2.30;;;;;;;17.08;100.00;98795.59;1822373;78;21177;-64
2021/06/08 04:12:41;;;;;;;2.98;2.65;;;;;;;17.15;100.00;98797.56;1823173;78;20895;-65
2021/06/08 04:15:13;;;;;;;2.85;2.50;;;;;;;17.22;100.00;98793.27;1823230;78;21500;-64
2021/06/08 04:17:46;;;;;;;3.85;2.52;;;;;;;17.28;100.00;98799.69;1792887;78;20896;-63
2021/06/08 04:20:17;;;;;;;3.72;2.22;;;;;;;17.35;100.00;98794.99;1822746;78;21034;-63
2021/06/08 04:22:47;;;;;;;3.65;2.70;;;;;;;17.45;100.00;98800.36;1821131;78;20951;-64
2021/06/08 04:25:17;;;;;;;4.35;2.65;;;;;;;17.53;100.00;98798.30;1821268;78;21006;-65
2021/06/08 04:27:45;;;;;;;4.28;2.70;;;;;;;17.60;100.00;98797.58;1818549;78;20948;-66
2021/06/08 04:30:15;;;;;;;5.85;2.62;;;;;;;17.67;100.00;98796.91;1802560;79;21434;-66
2021/06/08 04:32:45;;;;;;;3.40;2.42;;;;;;;17.74;100.00;98795.26;1785970;79;21444;-65
2021/06/08 04:35:14;;;;;;;4.33;2.42;;;;;;;17.83;100.00;98794.88;1717087;82;21150;-66
2021/06/08 04:37:42;;;;;;;3.98;2.58;;;;;;;17.92;100.00;98793.63;1733451;82;20921;-65
2021/06/08 04:40:12;;;;;;;8.63;2.72;;;;;;;18.02;100.00;98793.68;1733554;81;21070;-65
2021/06/08 04:42:44;;;;;;;4.25;2.70;;;;;;;18.10;100.00;98796.89;1733639;82;21035;-66
2021/06/08 04:45:12;;;;;;;6.65;2.80;;;;;;;18.18;100.00;98796.10;1703095;84;21070;-67
2021/06/08 04:47:40;;;;;;;3.62;2.92;;;;;;;18.27;100.00;98796.64;1733542;81;21804;-66
2021/06/08 04:50:11;;;;;;;5.22;3.10;;;;;;;18.34;100.00;98802.12;1733381;81;21096;-66
2021/06/08 04:52:39;;;;;;;3.87;2.90;;;;;;;18.42;100.00;98796.84;1733576;81;21034;-64
2021/06/08 04:55:09;;;;;;;6.83;3.10;;;;;;;18.50;100.00;98788.53;1733681;82;21077;-63
2021/06/08 04:57:38;;;;;;;5.00;3.00;;;;;;;18.55;100.00;98792.73;1702702;83;20990;-65
2021/06/08 05:00:13;;;;;;;3.33;3.00;;;;;;;18.58;100.00;98786.86;1733799;81;21548;-63
2021/06/08 05:02:56;;;;;;;6.62;2.83;;;;;;;18.64;100.00;98788.82;1733474;82;20975;-62
2021/06/08 05:05:27;;;;;;;3.90;2.87;;;;;;;18.71;100.00;98788.95;1750985;81;20938;-62
2021/06/08 05:08:16;;;;;;;5.35;2.72;;;;;;;18.77;100.00;98785.12;1734983;81;20888;-65
2021/06/08 05:11:11;;;;;;;5.10;2.72;;;;;;;18.83;100.00;98784.38;1731332;81;20956;-63
2021/06/08 05:13:42;;;;;;;4.83;2.52;;;;;;;18.91;100.00;98786.70;1735033;81;21156;-65
2021/06/08 05:16:11;;;;;;;3.83;2.72;;;;;;;18.96;100.00;98779.84;1728448;82;21257;-66
2021/06/08 05:18:41;;;;;;;3.80;2.67;;;;;;;18.99;100.00;98783.25;1728943;82;21054;-63
2021/06/08 05:21:11;;;;;;;2.62;2.42;;;;;;;19.02;100.00;98780.43;1729187;81;21079;-64
2021/06/08 05:23:40;;;;;;;3.95;2.55;;;;;;;19.06;100.00;98781.16;1729601;81;20984;-62
2021/06/08 05:26:08;;;;;;;4.20;2.47;;;;;;;19.10;100.00;98772.05;1731767;81;21503;-62
2021/06/08 05:28:39;;;;;;;5.62;3.47;;;;;;;19.17;100.00;98773.03;1754676;79;20926;-62
2021/06/08 05:31:08;;;;;;;4.83;2.30;;;;;;;19.26;100.00;98769.53;1739889;81;20991;-63
2021/06/08 05:33:37;;;;;;;3.60;2.42;;;;;;;19.33;100.00;98774.52;1740017;81;21085;-63
2021/06/08 05:36:05;;;;;;;3.12;2.50;;;;;;;19.42;100.00;98771.42;1767642;80;20920;-63
2021/06/08 05:38:38;;;;;;;3.37;2.75;;;;;;;19.50;100.00;98768.38;1767987;80;21147;-63
2021/06/08 05:41:08;;;;;;;7.00;2.55;;;;;;;19.59;100.00;98768.44;1768340;80;21026;-62
2021/06/08 05:43:37;;;;;;;2.77;2.55;;;;;;;19.68;100.00;98767.52;1764193;80;21085;-63
2021/06/08 05:46:06;;;;;;;4.47;2.87;;;;;;;19.78;100.00;98771.47;1761449;81;21482;-62
2021/06/08 05:48:36;;;;;;;3.85;2.50;;;;;;;19.89;100.00;98765.62;1764398;79;20905;-63
2021/06/08 05:51:05;;;;;;;4.53;2.50;;;;;;;19.98;100.00;98760.27;1762077;79;21143;-62
2021/06/08 05:53:36;;;;;;;2.95;2.72;;;;;;;20.06;100.00;98760.28;1767986;80;21067;-63
2021/06/08 05:56:04;;;;;;;3.45;2.75;;;;;;;20.15;100.00;98762.09;1771871;80;20894;-62
2021/06/08 05:58:33;;;;;;;7.08;2.72;;;;;;;20.22;100.00;98765.72;1761644;80;21058;-63
2021/06/08 06:01:02;;;;;;;4.45;2.37;;;;;;;20.32;100.00;98762.09;1764784;80;21467;-63
2021/06/08 06:03:30;;;;;;;3.83;2.60;;;;;;;20.41;100.00;98761.67;1764632;80;21081;-63
2021/06/08 06:05:59;;;;;;;5.60;3.02;;;;;;;20.51;100.00;98762.05;1764633;80;20931;-62
2021/06/08 06:08:27;;;;;;;6.22;3.30;;;;;;;20.59;100.00;98764.73;1768466;80;20988;-62
2021/06/08 06:10:55;;;;;;;5.00;3.17;;;;;;;20.69;100.00;98760.61;1764139;79;20959;-63
2021/06/08 06:13:25;;;;;;;3.62;2.92;;;;;;;20.79;100.00;98756.96;1767388;80;20889;-63
2021/06/08 06:15:53;;;;;;;2.87;2.60;;;;;;;20.89;100.00;98756.02;1767404;80;21130;-63
2021/06/08 06:18:22;;;;;;;4.08;2.77;;;;;;;21.00;100.00;98756.30;1760776;80;21411;-63
2021/06/08 06:20:52;;;;;;;5.80;3.15;;;;;;;21.11;100.00;98749.87;1762946;80;21033;-65
2021/06/08 06:37:02;;;;;;;5.70;2.40;;;;;;;22.42;100.00;98742.84;1786649;79;23425;-64
2021/06/08 06:39:30;;;;;;;3.87;2.10;;;;;;;22.56;100.00;98741.05;1791250;79;20903;-63
2021/06/08 06:42:01;;;;;;;3.67;2.10;;;;;;;22.66;100.00;98738.66;1791064;80;21140;-64
2021/06/08 06:44:31;;;;;;;2.75;2.22;;;;;;;22.72;100.00;98732.06;1791381;80;20918;-64
2021/06/08 06:47:00;;;;;;;5.70;3.02;;;;;;;22.81;100.00;98736.90;1791249;79;20840;-65
2021/06/08 06:49:28;;;;;;;2.80;2.20;;;;;;;22.84;100.00;98726.81;1791435;79;20883;-64
2021/06/08 06:51:56;;;;;;;8.78;3.00;;;;;;;22.88;100.00;98735.55;1791190;79;21402;-65
2021/06/08 06:54:24;;;;;;;3.70;2.22;;;;;;;22.93;100.00;98721.34;1763238;80;21121;-66
2021/06/08 06:56:54;;;;;;;2.42;2.22;;;;;;;22.96;100.00;98719.80;1791042;79;20864;-66
2021/06/08 06:59:22;;;;;;;4.53;2.42;;;;;;;22.99;100.00;98720.95;1791687;79;21462;-68
2021/06/08 07:01:49;;;;;;;4.47;2.42;;;;;;;23.05;100.00;98724.59;1761651;80;20927;-67
2021/06/08 07:04:17;;;;;;;4.78;2.65;;;;;;;23.11;100.00;98728.72;1791568;80;20943;-66
2021/06/08 07:06:45;;;;;;;4.60;2.15;;;;;;;23.15;100.00;98727.08;1791332;80;21160;-67
2021/06/08 07:09:13;;;;;;;4.28;2.62;;;;;;;23.21;100.00;98725.85;1791058;79;20982;-67
2021/06/08 07:11:43;;;;;;;4.00;2.60;;;;;;;23.27;100.00;98725.94;1791379;80;20950;-67
2021/06/08 07:14:10;;;;;;;8.10;2.70;;;;;;;23.33;100.00;98725.54;1789229;80;20923;-67
2021/06/08 07:16:38;;;;;;;5.67;2.60;;;;;;;23.37;100.00;98725.23;1791729;79;20855;-66
2021/06/08 07:19:05;;;;;;;6.45;2.55;;;;;;;23.42;100.00;98720.42;1791981;79;21069;-66
2021/06/08 07:21:32;;;;;;;4.05;2.40;;;;;;;23.45;100.00;98724.26;1763210;80;20883;-66
2021/06/08 07:24:00;;;;;;;4.03;2.75;;;;;;;23.48;100.00;98718.67;1791848;79;20840;-67
2021/06/08 07:26:29;;;;;;;3.62;2.52;;;;;;;23.51;100.00;98725.20;1791561;79;20855;-67
2021/06/08 07:28:56;;;;;;;6.78;2.37;;;;;;;23.54;100.00;98728.17;1791663;80;20907;-67
2021/06/08 07:31:34;;;;;;;3.17;2.35;;;;;;;23.57;100.00;98725.80;1791640;79;21818;-66
2021/06/08 07:34:04;;;;;;;9.10;2.90;;;;;;;23.60;100.00;98723.77;1791386;80;21408;-66
2021/06/08 07:36:45;;;;;;;3.65;2.55;;;;;;;23.66;100.00;98729.26;1793176;80;21422;-66
2021/06/08 07:39:23;;;;;;;2.80;2.47;;;;;;;23.70;100.00;98724.92;1793810;80;20930;-66
2021/06/08 07:41:59;;;;;;;5.85;2.77;;;;;;;23.76;100.00;98731.72;1793904;80;21414;-65
2021/06/08 07:44:30;;;;;;;6.92;2.60;;;;;;;23.79;100.00;98726.13;1793961;80;21338;-67
2021/06/08 07:47:01;;;;;;;4.78;2.90;;;;;;;23.79;100.00;98725.65;1794153;80;20879;-67
2021/06/08 07:49:29;;;;;;;4.87;2.90;;;;;;;23.82;100.00;98722.75;1793917;80;20855;-68
2021/06/08 07:51:56;;;;;;;4.92;2.72;;;;;;;23.86;100.00;98721.58;1794422;80;20843;-68
2021/06/08 07:54:24;;;;;;;2.90;2.60;;;;;;;23.94;100.00;98722.89;1794382;80;20923;-68
2021/06/08 07:56:52;;;;;;;3.37;2.60;;;;;;;24.00;100.00;98729.21;1767882;80;21091;-68
2021/06/08 07:59:20;;;;;;;2.58;2.37;;;;;;;24.04;100.00;98722.16;1794098;80;20973;-68
2021/06/08 08:01:48;;;;;;;3.77;2.55;;;;;;;24.11;100.00;98726.66;1768148;80;21532;-68
2021/06/08 08:04:20;;;;;;;3.80;2.37;;;;;;;24.18;100.00;98721.26;1794571;80;20871;-67
2021/06/08 08:06:51;;;;;;;5.10;2.37;;;;;;;24.22;100.00;98722.77;1769254;80;21488;-66
2021/06/08 08:09:19;;;;;;;4.23;2.30;;;;;;;24.26;100.00;98718.03;1768130;80;21064;-67
2021/06/08 08:11:47;;;;;;;4.12;2.30;;;;;;;24.31;100.00;98714.09;1794574;80;20911;-68
2021/06/08 08:14:16;;;;;;;2.85;2.08;;;;;;;24.42;100.00;98719.59;1794758;80;20844;-66
2021/06/08 08:16:46;;;;;;;4.85;2.20;;;;;;;24.48;100.00;98712.42;1794806;80;21400;-68
2021/06/08 08:19:16;;;;;;;4.08;2.42;;;;;;;24.56;100.00;98721.81;1794359;80;20922;-66
2021/06/08 08:21:44;;;;;;;6.28;2.22;;;;;;;24.63;100.00;98715.91;1794962;80;21752;-67
2021/06/08 08:24:11;;;;;;;8.78;2.27;;;;;;;24.68;100.00;98720.98;1794467;80;20894;-68
2021/06/08 08:26:39;;;;;;;2.90;2.10;;;;;;;24.72;100.00;98721.14;1794285;80;20847;-69
2021/06/08 08:29:09;;;;;;;2.85;2.08;;;;;;;24.77;100.00;98722.55;1793984;80;20923;-68
2021/06/08 08:31:37;;;;;;;4.67;2.08;;;;;;;24.82;100.00;98718.17;1794678;80;20887;-69
2021/06/08 08:34:06;;;;;;;3.02;2.27;;;;;;;24.87;100.00;98717.36;1794520;80;21094;-69
2021/06/08 08:36:36;;;;;;;4.25;2.17;;;;;;;24.91;100.00;98718.86;1792449;79;20887;-68
2021/06/08 08:39:07;;;;;;;2.40;1.95;;;;;;;24.99;100.00;98718.34;1791221;79;20875;-68
2021/06/08 08:41:53;;;;;;;3.05;2.30;;;;;;;25.08;100.00;98717.23;1791830;80;20939;-68
2021/06/08 08:44:21;;;;;;;4.35;1.92;;;;;;;25.21;100.00;98717.69;1791569;79;21057;-68
2021/06/08 08:47:07;;;;;;;5.65;2.20;;;;;;;25.30;100.00;98711.62;1791712;79;20906;-68
2021/06/08 08:49:34;;;;;;;4.05;2.00;;;;;;;25.38;100.00;98709.22;1788945;79;20883;-69
2021/06/08 08:52:03;;;;;;;6.00;1.98;;;;;;;25.44;100.00;98702.02;1791933;79;20895;-69
2021/06/08 08:54:31;;;;;;;5.75;2.00;;;;;;;25.49;100.00;98705.72;1791638;79;21401;-67
2021/06/08 08:56:58;;;;;;;4.70;2.10;;;;;;;25.56;100.00;98707.88;1791718;80;20931;-69
2021/06/08 08:59:27;;;;;;;3.33;2.08;;;;;;;25.61;100.00;98704.35;1791534;80;21153;-69
2021/06/08 09:01:58;;;;;;;5.85;2.30;;;;;;;25.69;100.00;98709.22;1763395;80;20923;-69
2021/06/08 09:04:26;;;;;;;2.77;2.40;;;;;;;25.72;100.00;98700.88;1791474;79;20875;-69
2021/06/08 09:06:54;;;;;;;5.97;2.55;;;;;;;25.79;100.00;98701.28;1791707;80;20872;-68
2021/06/08 09:09:22;;;;;;;5.10;1.98;;;;;;;25.81;100.00;98702.02;1792028;79;21423;-69
2021/06/08 09:11:49;;;;;;;4.42;2.20;;;;;;;25.83;100.00;98699.58;1791679;80;21100;-69
2021/06/08 09:14:18;;;;;;;3.40;2.10;;;;;;;25.88;100.00;98697.39;1792104;79;20914;-67
2021/06/08 09:16:46;;;;;;;4.10;2.22;;;;;;;25.95;100.00;98703.19;1791854;80;20923;-69
2021/06/08 09:19:14;;;;;;;6.08;2.40;;;;;;;26.02;100.00;98701.28;1791907;80;20938;-69
2021/06/08 09:21:44;;;;;;;3.87;2.10;;;;;;;26.02;100.00;98705.83;1791539;79;20894;-67
2021/06/08 09:24:25;;;;;;;11.73;2.30;;;;;;;26.04;100.00;98705.22;1792075;80;21299;-67
2021/06/08 09:27:05;;;;;;;3.12;1.80;;;;;;;26.05;100.00;98702.89;1791765;79;20906;-67
2021/06/08 09:29:43;;;;;;;2.15;1.90;;;;;;;26.14;100.00;98698.63;1791829;79;20852;-66
2021/06/08 09:32:25;;;;;;;3.45;1.87;;;;;;;26.26;100.00;98691.77;1791493;80;20863;-68
2021/06/08 09:34:59;;;;;;;3.77;2.27;;;;;;;26.41;100.00;98690.24;1791693;79;21417;-67
2021/06/08 09:37:39;;;;;;;2.80;2.10;;;;;;;26.45;100.00;98684.47;1790945;79;21165;-68
2021/06/08 09:40:22;;;;;;;6.12;2.10;;;;;;;26.43;96.85;98682.87;1791490;79;20931;-71
2021/06/08 09:42:50;;;;;;;13.00;2.30;;;;;;;26.36;95.55;98683.84;1791932;79;21354;-68
2021/06/08 09:45:22;;;;;;;4.20;1.95;;;;;;;26.29;95.08;98685.27;1763159;80;20951;-68
2021/06/08 09:47:59;;;;;;;;;;;;;;;26.21;95.75;98681.81;1794393;80;20949;-67
2021/06/08 09:50:33;;;;;;;7.53;2.08;;;;;;;26.13;96.33;98686.95;1791951;79;21102;-68
2021/06/08 09:53:21;;;;;;;4.42;2.00;;;;;;;26.00;95.28;98690.19;1792375;79;20887;-67
2021/06/08 09:55:57;;;;;;;3.50;1.90;;;;;;;25.83;94.53;98683.86;1792165;80;20914;-65
2021/06/08 09:58:27;;;;;;;3.98;1.98;;;;;;;25.66;95.07;98681.08;1791954;80;21322;-67
2021/06/08 10:01:23;;;;;;;2.95;1.90;;;;;;;25.54;95.59;98675.19;1791859;79;21385;-66
2021/06/08 10:03:54;;;;;;;3.02;2.00;;;;;;;25.46;97.45;98673.05;1791786;79;21362;-68
2021/06/08 10:06:36;;;;;;;5.70;1.98;;;;;;;25.41;98.68;98677.94;1791839;80;20906;-68
2021/06/08 10:09:07;;;;;;;5.43;1.83;;;;;;;25.39;99.96;98679.89;1789461;79;20883;-69
2021/06/08 10:11:35;;;;;;;4.65;1.87;;;;;;;25.37;100.00;98677.30;1791723;79;21393;-69
2021/06/08 10:14:20;;;;;;;4.25;2.25;;;;;;;25.34;100.00;98672.62;1791601;79;20936;-69
2021/06/08 10:17:02;;;;;;;2.98;1.98;;;;;;;25.28;100.00;98666.32;1791594;79;21098;-69
2021/06/08 10:19:36;;;;;;;2.35;1.72;;;;;;;25.21;100.00;98667.27;1791544;79;20895;-67
2021/06/08 10:22:04;;;;;;;4.95;2.10;;;;;;;25.14;100.00;98661.94;1791556;79;20895;-67
2021/06/08 10:24:33;;;;;;;3.50;1.60;;;;;;;25.10;100.00;98660.44;1791173;79;20919;-68
2021/06/08 10:27:01;;;;;;;9.93;2.15;;;;;;;25.05;100.00;98656.70;1791338;79;21004;-69
2021/06/08 10:29:30;;;;;;;8.08;2.02;;;;;;;25.04;100.00;98659.02;1790309;79;21085;-65
2021/06/08 10:31:59;;;;;;;3.15;1.80;;;;;;;25.06;100.00;98663.82;1779669;79;20927;-65
2021/06/08 10:34:32;;;;;;;9.63;2.10;;;;;;;25.12;100.00;98650.40;1778238;79;21489;-65
2021/06/08 10:36:57;;;;;;;5.08;1.98;;;;;;;25.21;100.00;98648.86;1753515;80;21449;-65
2021/06/08 10:39:27;;;;;;;4.45;2.12;;;;;;;25.31;100.00;98658.86;1747830;81;20950;-66
2021/06/08 10:41:58;;;;;;;5.97;2.08;;;;;;;25.38;100.00;98649.33;1751020;81;21977;-66
2021/06/08 10:44:28;;;;;;;3.40;2.30;;;;;;;25.41;100.00;98653.63;1748939;81;20938;-66
2021/06/08 10:47:19;;;;;;;4.60;2.83;;;;;;;25.40;100.00;98647.86;1747066;81;20962;-66
2021/06/08 10:49:40;;;;;;;4.47;2.12;;;;;;;25.33;100.00;98642.06;1746798;81;21490;-65
2021/06/08 10:52:15;;;;;;;6.10;2.10;;;;;;;25.34;100.00;98632.13;1747913;81;21484;-65
2021/06/08 10:54:50;;;;;;;3.35;2.10;;;;;;;25.46;100.00;98625.80;1747032;81;21982;-66
2021/06/08 10:57:18;;;;;;;2.62;1.95;;;;;;;25.64;100.00;98632.55;1747958;81;20938;-66
2021/06/08 10:59:50;;;;;;;6.28;2.20;;;;;;;25.86;100.00;98622.34;1747259;81;20942;-66
2021/06/08 11:02:45;;;;;;;3.65;2.00;;;;;;;26.08;100.00;98613.46;1747119;81;21406;-65
2021/06/08 11:05:17;;;;;;;3.42;1.80;;;;;;;26.35;100.00;98606.41;1746610;81;21029;-65
2021/06/08 11:07:51;;;;;;;4.50;2.08;;;;;;;26.57;100.00;98603.73;1747080;81;21109;-65
2021/06/08 11:10:33;;;;;;;4.92;2.60;;;;;;;26.69;97.40;98602.38;1747803;81;20864;-65
2021/06/08 11:13:21;;;;;;;8.65;1.82;;;;;;;26.77;93.60;98598.07;1749228;81;21395;-65
2021/06/08 11:15:50;;;;;;;8.68;2.20;;;;;;;26.77;91.21;98603.48;1748572;81;21493;-65
2021/06/08 11:18:38;;;;;;;4.12;1.90;;;;;;;26.72;88.95;98608.41;1751278;81;20927;-66
2021/06/08 11:21:12;;;;;;;2.12;1.72;;;;;;;26.64;88.85;98609.52;1746940;81;21102;-67
2021/06/08 11:23:44;;;;;;;3.77;1.72;;;;;;;26.49;86.33;98606.66;1748845;81;20966;-66
2021/06/08 11:26:14;;;;;;;;;;;;;;;26.35;81.19;98608.61;1746807;81;21015;-67
2021/06/08 11:28:47;;;;;;;4.62;2.17;;;;;;;26.21;78.61;98613.36;1749805;81;20127;-67
2021/06/08 11:31:21;;;;;;;8.80;2.10;;;;;;;26.06;80.10;98614.56;1746292;81;20844;-67
2021/06/08 11:33:50;;;;;;;3.52;1.80;;;;;;;25.90;83.39;98621.61;1741887;81;21242;-68
2021/06/08 11:36:25;;;;;;;2.65;1.70;;;;;;;25.78;85.03;98623.91;1747254;81;21390;-67
2021/06/08 11:38:55;;;;;;;3.00;2.02;;;;;;;25.58;87.05;98610.05;1758365;81;20903;-66
2021/06/08 11:41:22;;;;;;;4.15;1.70;;;;;;;25.38;91.36;98604.78;1765764;80;21432;-63
2021/06/08 11:43:55;;;;;;;4.25;2.10;;;;;;;25.16;95.24;98610.06;1770856;81;21452;-64
2021/06/08 11:46:30;;;;;;;2.62;1.70;;;;;;;24.98;96.43;98597.41;1771654;81;21103;-65
2021/06/08 11:49:13;;;;;;;2.67;1.80;;;;;;;24.79;99.06;98599.70;1771903;81;20928;-64
2021/06/08 11:51:47;;;;;;;3.05;2.05;;;;;;;24.69;100.00;98601.34;1791008;79;21489;-63
2021/06/08 11:54:31;;;;;;;4.83;2.05;;;;;;;24.59;100.00;98605.64;1763511;81;21001;-63
2021/06/08 11:57:10;;;;;;;4.37;1.92;;;;;;;24.47;100.00;98620.38;1790956;79;20929;-63
2021/06/08 11:59:56;;;;;;;3.12;1.77;;;;;;;24.36;100.00;98624.81;1791216;80;21276;-64
2021/06/08 12:02:41;;;;;;;2.72;2.05;;;;;;;24.26;100.00;98625.05;1791008;80;21407;-64
2021/06/08 12:05:22;;;;;;;3.75;2.10;;;;;;;24.16;100.00;98623.00;1791235;80;20881;-63
2021/06/08 12:08:02;;;;;;;6.15;2.33;;;;;;;24.07;100.00;98620.91;1791152;79;20894;-63
2021/06/08 12:31:35;;;;;;;2.12;1.30;;;;;;;24.16;100.00;98605.97;1786411;80;22634;-66
2021/06/08 12:34:16;;;;;;;2.42;1.55;;;;;;;24.29;100.00;98592.52;1791150;79;21400;-65
2021/06/08 12:36:45;;;;;;;3.35;1.50;;;;;;;24.37;100.00;98577.53;1791218;79;21389;-66